sensor_id;sensor_type;location;lat;lon;timestamp;P1;durP1;ratioP1;P2;durP2;ratioP2
15043;SDS011;7619;48.562;8.910;2022-07-19T00:00:15;2.80;;;2.10;;
15043;SDS011;7619;48.562;8.910;2022-07-19T00:02:45;3.93;;;1.90;;
15043;SDS011;7619;48.562;8.910;2022-07-19T00:05:14;3.07;;;2.67;;
15043;SDS011;7619;48.562;8.910;2022-07-19T00:07:44;7.60;;;2.47;;
15043;SDS011;7619;48.562;8.910;2022-07-19T00:10:13;6.33;;;2.33;;
15043;SDS011;7619;48.562;8.910;2022-07-19T00:12:43;2.70;;;2.37;;
15043;SDS011;7619;48.562;8.910;2022-07-19T00:15:13;4.70;;;2.30;;
15043;SDS011;7619;48.562;8.910;2022-07-19T00:17:43;3.27;;;2.17;;
15043;SDS011;7619;48.562;8.910;2022-07-19T00:20:15;9.53;;;2.53;;
15043;SDS011;7619;48.562;8.910;2022-07-19T00:22:43;2.80;;;2.20;;
15043;SDS011;7619;48.562;8.910;2022-07-19T00:25:12;2.73;;;1.80;;
15043;SDS011;7619;48.562;8.910;2022-07-19T00:27:41;2.37;;;2.17;;
15043;SDS011;7619;48.562;8.910;2022-07-19T00:30:11;2.97;;;2.00;;
15043;SDS011;7619;48.562;8.910;2022-07-19T00:32:40;2.10;;;1.83;;
15043;SDS011;7619;48.562;8.910;2022-07-19T00:35:09;5.10;;;2.07;;
15043;SDS011;7619;48.562;8.910;2022-07-19T00:37:38;8.30;;;2.00;;
15043;SDS011;7619;48.562;8.910;2022-07-19T00:40:09;6.40;;;1.93;;
15043;SDS011;7619;48.562;8.910;2022-07-19T00:42:37;3.53;;;2.07;;
15043;SDS011;7619;48.562;8.910;2022-07-19T00:45:06;2.27;;;1.97;;
15043;SDS011;7619;48.562;8.910;2022-07-19T00:47:35;2.90;;;2.30;;
15043;SDS011;7619;48.562;8.910;2022-07-19T00:50:03;2.10;;;2.00;;
15043;SDS011;7619;48.562;8.910;2022-07-19T00:52:33;3.43;;;2.00;;
15043;SDS011;7619;48.562;8.910;2022-07-19T00:55:03;3.73;;;2.33;;
15043;SDS011;7619;48.562;8.910;2022-07-19T00:57:35;3.37;;;2.20;;
15043;SDS011;7619;48.562;8.910;2022-07-19T01:00:06;4.20;;;1.93;;
15043;SDS011;7619;48.562;8.910;2022-07-19T01:02:34;4.43;;;2.00;;
15043;SDS011;7619;48.562;8.910;2022-07-19T01:05:05;2.63;;;2.13;;
15043;SDS011;7619;48.562;8.910;2022-07-19T01:07:36;2.67;;;2.20;;
15043;SDS011;7619;48.562;8.910;2022-07-19T01:10:08;2.90;;;2.40;;
15043;SDS011;7619;48.562;8.910;2022-07-19T01:12:40;4.80;;;2.27;;
15043;SDS011;7619;48.562;8.910;2022-07-19T01:15:15;3.83;;;2.23;;
15043;SDS011;7619;48.562;8.910;2022-07-19T01:17:46;5.17;;;2.20;;
15043;SDS011;7619;48.562;8.910;2022-07-19T01:20:14;3.13;;;2.40;;
15043;SDS011;7619;48.562;8.910;2022-07-19T01:22:45;7.73;;;2.40;;
15043;SDS011;7619;48.562;8.910;2022-07-19T01:25:13;3.23;;;2.37;;
15043;SDS011;7619;48.562;8.910;2022-07-19T01:27:42;2.10;;;2.00;;
15043;SDS011;7619;48.562;8.910;2022-07-19T01:30:11;5.00;;;2.60;;
15043;SDS011;7619;48.562;8.910;2022-07-19T01:32:39;3.60;;;2.17;;
15043;SDS011;7619;48.562;8.910;2022-07-19T01:35:10;4.77;;;2.17;;
15043;SDS011;7619;48.562;8.910;2022-07-19T01:37:37;2.27;;;2.07;;
15043;SDS011;7619;48.562;8.910;2022-07-19T01:40:08;2.50;;;2.30;;
15043;SDS011;7619;48.562;8.910;2022-07-19T01:42:39;2.40;;;2.03;;
15043;SDS011;7619;48.562;8.910;2022-07-19T01:45:09;3.37;;;1.80;;
15043;SDS011;7619;48.562;8.910;2022-07-19T01:47:39;4.53;;;2.60;;
15043;SDS011;7619;48.562;8.910;2022-07-19T01:50:09;2.80;;;2.30;;
15043;SDS011;7619;48.562;8.910;2022-07-19T01:52:39;3.07;;;2.50;;
15043;SDS011;7619;48.562;8.910;2022-07-19T01:55:09;2.40;;;2.00;;
15043;SDS011;7619;48.562;8.910;2022-07-19T01:57:38;4.03;;;2.23;;
15043;SDS011;7619;48.562;8.910;2022-07-19T02:00:08;2.57;;;2.00;;
15043;SDS011;7619;48.562;8.910;2022-07-19T02:02:38;2.60;;;2.40;;
15043;SDS011;7619;48.562;8.910;2022-07-19T02:05:07;2.30;;;2.10;;
15043;SDS011;7619;48.562;8.910;2022-07-19T02:07:36;6.27;;;2.83;;
15043;SDS011;7619;48.562;8.910;2022-07-19T02:10:07;4.47;;;2.67;;
15043;SDS011;7619;48.562;8.910;2022-07-19T02:12:37;4.33;;;2.40;;
15043;SDS011;7619;48.562;8.910;2022-07-19T02:15:06;2.90;;;2.07;;
15043;SDS011;7619;48.562;8.910;2022-07-19T02:17:34;3.43;;;2.20;;
15043;SDS011;7619;48.562;8.910;2022-07-19T02:20:05;3.80;;;2.37;;
15043;SDS011;7619;48.562;8.910;2022-07-19T02:22:33;3.33;;;2.40;;
15043;SDS011;7619;48.562;8.910;2022-07-19T02:25:01;3.17;;;2.70;;
15043;SDS011;7619;48.562;8.910;2022-07-19T02:27:30;2.30;;;2.10;;
15043;SDS011;7619;48.562;8.910;2022-07-19T02:30:00;2.80;;;2.20;;
15043;SDS011;7619;48.562;8.910;2022-07-19T02:32:28;2.50;;;2.30;;
15043;SDS011;7619;48.562;8.910;2022-07-19T02:34:55;3.00;;;2.70;;
15043;SDS011;7619;48.562;8.910;2022-07-19T02:37:24;2.83;;;2.40;;
15043;SDS011;7619;48.562;8.910;2022-07-19T02:39:53;2.47;;;2.27;;
15043;SDS011;7619;48.562;8.910;2022-07-19T02:42:22;3.30;;;2.63;;
15043;SDS011;7619;48.562;8.910;2022-07-19T02:44:51;3.17;;;2.07;;
15043;SDS011;7619;48.562;8.910;2022-07-19T02:47:20;7.40;;;2.27;;
15043;SDS011;7619;48.562;8.910;2022-07-19T02:49:49;2.13;;;1.83;;
15043;SDS011;7619;48.562;8.910;2022-07-19T02:52:18;4.83;;;2.20;;
15043;SDS011;7619;48.562;8.910;2022-07-19T02:54:46;4.30;;;2.60;;
15043;SDS011;7619;48.562;8.910;2022-07-19T02:57:15;3.50;;;2.50;;
15043;SDS011;7619;48.562;8.910;2022-07-19T02:59:52;2.67;;;2.30;;
15043;SDS011;7619;48.562;8.910;2022-07-19T03:02:21;2.03;;;1.83;;
15043;SDS011;7619;48.562;8.910;2022-07-19T03:04:50;1.93;;;1.83;;
15043;SDS011;7619;48.562;8.910;2022-07-19T03:07:19;5.70;;;2.70;;
15043;SDS011;7619;48.562;8.910;2022-07-19T03:09:48;3.53;;;2.13;;
15043;SDS011;7619;48.562;8.910;2022-07-19T03:12:17;2.90;;;2.10;;
15043;SDS011;7619;48.562;8.910;2022-07-19T03:14:46;5.03;;;2.43;;
15043;SDS011;7619;48.562;8.910;2022-07-19T03:17:15;2.97;;;2.70;;
15043;SDS011;7619;48.562;8.910;2022-07-19T03:19:44;3.27;;;2.30;;
15043;SDS011;7619;48.562;8.910;2022-07-19T03:22:12;2.50;;;2.23;;
15043;SDS011;7619;48.562;8.910;2022-07-19T03:24:41;2.63;;;2.40;;
15043;SDS011;7619;48.562;8.910;2022-07-19T03:27:10;4.63;;;2.60;;
15043;SDS011;7619;48.562;8.910;2022-07-19T03:29:39;2.70;;;2.50;;
15043;SDS011;7619;48.562;8.910;2022-07-19T03:32:08;3.63;;;2.63;;
15043;SDS011;7619;48.562;8.910;2022-07-19T03:34:36;3.40;;;2.57;;
15043;SDS011;7619;48.562;8.910;2022-07-19T03:37:05;2.70;;;2.50;;
15043;SDS011;7619;48.562;8.910;2022-07-19T03:39:34;3.53;;;2.43;;
15043;SDS011;7619;48.562;8.910;2022-07-19T03:42:03;2.50;;;2.30;;
15043;SDS011;7619;48.562;8.910;2022-07-19T03:44:32;3.00;;;2.50;;
15043;SDS011;7619;48.562;8.910;2022-07-19T03:47:01;2.40;;;2.20;;
15043;SDS011;7619;48.562;8.910;2022-07-19T03:49:30;3.00;;;2.70;;
15043;SDS011;7619;48.562;8.910;2022-07-19T03:51:59;3.07;;;2.77;;
15043;SDS011;7619;48.562;8.910;2022-07-19T03:54:28;2.60;;;2.40;;
15043;SDS011;7619;48.562;8.910;2022-07-19T03:56:57;6.03;;;2.67;;
15043;SDS011;7619;48.562;8.910;2022-07-19T03:59:26;5.63;;;2.70;;
15043;SDS011;7619;48.562;8.910;2022-07-19T04:01:54;3.47;;;3.17;;
15043;SDS011;7619;48.562;8.910;2022-07-19T04:04:22;3.67;;;2.53;;
15043;SDS011;7619;48.562;8.910;2022-07-19T04:06:51;5.00;;;2.77;;
15043;SDS011;7619;48.562;8.910;2022-07-19T04:09:20;4.17;;;2.80;;
15043;SDS011;7619;48.562;8.910;2022-07-19T04:11:49;10.03;;;2.27;;
15043;SDS011;7619;48.562;8.910;2022-07-19T04:14:18;6.37;;;2.97;;
15043;SDS011;7619;48.562;8.910;2022-07-19T04:16:47;4.43;;;2.30;;
15043;SDS011;7619;48.562;8.910;2022-07-19T04:19:16;4.63;;;2.97;;
15043;SDS011;7619;48.562;8.910;2022-07-19T04:21:45;2.83;;;2.63;;
15043;SDS011;7619;48.562;8.910;2022-07-19T04:24:13;2.20;;;2.00;;
15043;SDS011;7619;48.562;8.910;2022-07-19T04:26:42;2.53;;;2.33;;
15043;SDS011;7619;48.562;8.910;2022-07-19T04:29:11;2.53;;;2.33;;
15043;SDS011;7619;48.562;8.910;2022-07-19T04:31:40;2.63;;;2.37;;
15043;SDS011;7619;48.562;8.910;2022-07-19T04:34:10;5.10;;;2.33;;
15043;SDS011;7619;48.562;8.910;2022-07-19T04:36:40;5.70;;;2.20;;
15043;SDS011;7619;48.562;8.910;2022-07-19T04:39:09;2.30;;;2.10;;
15043;SDS011;7619;48.562;8.910;2022-07-19T04:41:37;3.20;;;2.20;;
15043;SDS011;7619;48.562;8.910;2022-07-19T04:44:06;5.07;;;2.00;;
15043;SDS011;7619;48.562;8.910;2022-07-19T04:46:35;4.43;;;2.60;;
15043;SDS011;7619;48.562;8.910;2022-07-19T04:49:05;3.00;;;2.00;;
15043;SDS011;7619;48.562;8.910;2022-07-19T04:51:32;3.90;;;2.20;;
15043;SDS011;7619;48.562;8.910;2022-07-19T04:54:01;3.83;;;2.80;;
15043;SDS011;7619;48.562;8.910;2022-07-19T04:56:30;5.37;;;2.90;;
15043;SDS011;7619;48.562;8.910;2022-07-19T04:58:59;2.63;;;2.40;;
15043;SDS011;7619;48.562;8.910;2022-07-19T05:01:28;5.00;;;3.00;;
15043;SDS011;7619;48.562;8.910;2022-07-19T05:03:58;2.30;;;2.10;;
15043;SDS011;7619;48.562;8.910;2022-07-19T05:06:27;5.23;;;2.40;;
15043;SDS011;7619;48.562;8.910;2022-07-19T05:08:56;3.93;;;2.20;;
15043;SDS011;7619;48.562;8.910;2022-07-19T05:11:25;5.30;;;2.20;;
15043;SDS011;7619;48.562;8.910;2022-07-19T05:13:54;2.47;;;2.27;;
15043;SDS011;7619;48.562;8.910;2022-07-19T05:16:23;2.30;;;2.10;;
15043;SDS011;7619;48.562;8.910;2022-07-19T05:18:52;2.80;;;2.03;;
15043;SDS011;7619;48.562;8.910;2022-07-19T05:21:21;2.30;;;1.83;;
15043;SDS011;7619;48.562;8.910;2022-07-19T05:23:50;3.63;;;2.30;;
15043;SDS011;7619;48.562;8.910;2022-07-19T05:26:19;1.97;;;1.77;;
15043;SDS011;7619;48.562;8.910;2022-07-19T05:28:48;2.20;;;2.00;;
15043;SDS011;7619;48.562;8.910;2022-07-19T05:31:17;2.67;;;2.20;;
15043;SDS011;7619;48.562;8.910;2022-07-19T05:33:46;2.53;;;2.30;;
15043;SDS011;7619;48.562;8.910;2022-07-19T05:36:15;3.30;;;2.40;;
15043;SDS011;7619;48.562;8.910;2022-07-19T05:38:44;2.60;;;2.40;;
15043;SDS011;7619;48.562;8.910;2022-07-19T05:41:13;3.20;;;2.90;;
15043;SDS011;7619;48.562;8.910;2022-07-19T05:43:42;3.10;;;2.50;;
15043;SDS011;7619;48.562;8.910;2022-07-19T05:46:11;2.53;;;2.33;;
15043;SDS011;7619;48.562;8.910;2022-07-19T05:48:40;5.30;;;2.63;;
15043;SDS011;7619;48.562;8.910;2022-07-19T05:51:09;2.83;;;2.43;;
15043;SDS011;7619;48.562;8.910;2022-07-19T05:53:38;3.20;;;2.90;;
15043;SDS011;7619;48.562;8.910;2022-07-19T05:56:08;3.50;;;2.90;;
15043;SDS011;7619;48.562;8.910;2022-07-19T06:01:14;3.00;;;2.47;;
15043;SDS011;7619;48.562;8.910;2022-07-19T06:03:46;2.90;;;2.23;;
15043;SDS011;7619;48.562;8.910;2022-07-19T06:06:14;2.40;;;2.20;;
15043;SDS011;7619;48.562;8.910;2022-07-19T06:08:42;2.10;;;2.00;;
15043;SDS011;7619;48.562;8.910;2022-07-19T06:11:11;2.40;;;2.20;;
15043;SDS011;7619;48.562;8.910;2022-07-19T06:13:40;5.13;;;2.80;;
15043;SDS011;7619;48.562;8.910;2022-07-19T06:16:10;2.50;;;2.30;;
15043;SDS011;7619;48.562;8.910;2022-07-19T06:18:39;3.60;;;2.50;;
15043;SDS011;7619;48.562;8.910;2022-07-19T06:21:09;3.53;;;2.33;;
15043;SDS011;7619;48.562;8.910;2022-07-19T06:23:39;2.60;;;2.40;;
15043;SDS011;7619;48.562;8.910;2022-07-19T06:26:11;6.10;;;1.90;;
15043;SDS011;7619;48.562;8.910;2022-07-19T06:28:39;6.03;;;2.00;;
15043;SDS011;7619;48.562;8.910;2022-07-19T06:31:09;2.43;;;2.23;;
15043;SDS011;7619;48.562;8.910;2022-07-19T06:33:38;2.27;;;1.67;;
15043;SDS011;7619;48.562;8.910;2022-07-19T06:36:08;2.30;;;2.10;;
15043;SDS011;7619;48.562;8.910;2022-07-19T06:38:36;2.50;;;2.30;;
15043;SDS011;7619;48.562;8.910;2022-07-19T06:41:07;2.30;;;2.10;;
15043;SDS011;7619;48.562;8.910;2022-07-19T06:43:37;3.73;;;2.13;;
15043;SDS011;7619;48.562;8.910;2022-07-19T06:46:07;3.20;;;1.80;;
15043;SDS011;7619;48.562;8.910;2022-07-19T06:48:36;3.80;;;2.00;;
15043;SDS011;7619;48.562;8.910;2022-07-19T06:51:05;4.27;;;2.03;;
15043;SDS011;7619;48.562;8.910;2022-07-19T06:53:35;1.83;;;1.73;;
15043;SDS011;7619;48.562;8.910;2022-07-19T06:56:05;2.07;;;1.97;;
15043;SDS011;7619;48.562;8.910;2022-07-19T06:58:35;3.47;;;2.30;;
15043;SDS011;7619;48.562;8.910;2022-07-19T07:01:04;2.53;;;2.00;;
15043;SDS011;7619;48.562;8.910;2022-07-19T07:03:32;2.60;;;2.40;;
15043;SDS011;7619;48.562;8.910;2022-07-19T07:06:03;2.60;;;2.00;;
15043;SDS011;7619;48.562;8.910;2022-07-19T07:08:31;4.87;;;1.93;;
15043;SDS011;7619;48.562;8.910;2022-07-19T07:11:00;3.60;;;2.20;;
15043;SDS011;7619;48.562;8.910;2022-07-19T07:13:29;3.83;;;2.13;;
15043;SDS011;7619;48.562;8.910;2022-07-19T07:15:58;4.63;;;2.03;;
15043;SDS011;7619;48.562;8.910;2022-07-19T07:18:27;2.77;;;2.10;;
15043;SDS011;7619;48.562;8.910;2022-07-19T07:20:56;4.20;;;2.50;;
15043;SDS011;7619;48.562;8.910;2022-07-19T07:23:24;2.17;;;1.97;;
15043;SDS011;7619;48.562;8.910;2022-07-19T07:25:53;1.80;;;1.70;;
15043;SDS011;7619;48.562;8.910;2022-07-19T07:28:21;1.77;;;1.67;;
15043;SDS011;7619;48.562;8.910;2022-07-19T07:30:51;7.23;;;1.90;;
15043;SDS011;7619;48.562;8.910;2022-07-19T07:33:20;3.47;;;2.20;;
15043;SDS011;7619;48.562;8.910;2022-07-19T07:35:49;2.83;;;1.77;;
15043;SDS011;7619;48.562;8.910;2022-07-19T07:38:17;3.07;;;1.90;;
15043;SDS011;7619;48.562;8.910;2022-07-19T07:40:46;3.50;;;1.57;;
15043;SDS011;7619;48.562;8.910;2022-07-19T07:43:14;2.73;;;1.77;;
15043;SDS011;7619;48.562;8.910;2022-07-19T07:45:43;2.37;;;1.63;;
15043;SDS011;7619;48.562;8.910;2022-07-19T07:48:12;2.93;;;1.73;;
15043;SDS011;7619;48.562;8.910;2022-07-19T07:50:41;2.30;;;1.53;;
15043;SDS011;7619;48.562;8.910;2022-07-19T07:53:10;1.90;;;1.50;;
15043;SDS011;7619;48.562;8.910;2022-07-19T07:55:39;1.80;;;1.70;;
15043;SDS011;7619;48.562;8.910;2022-07-19T07:58:08;1.73;;;1.50;;
15043;SDS011;7619;48.562;8.910;2022-07-19T08:00:38;4.07;;;1.50;;
15043;SDS011;7619;48.562;8.910;2022-07-19T08:03:08;1.60;;;1.50;;
15043;SDS011;7619;48.562;8.910;2022-07-19T08:05:37;4.07;;;2.00;;
15043;SDS011;7619;48.562;8.910;2022-07-19T08:08:07;1.00;;;1.00;;
15043;SDS011;7619;48.562;8.910;2022-07-19T08:10:36;1.73;;;1.40;;
15043;SDS011;7619;48.562;8.910;2022-07-19T08:13:05;2.20;;;1.40;;
15043;SDS011;7619;48.562;8.910;2022-07-19T08:15:35;2.37;;;1.40;;
15043;SDS011;7619;48.562;8.910;2022-07-19T08:18:03;4.00;;;1.40;;
15043;SDS011;7619;48.562;8.910;2022-07-19T08:20:32;1.57;;;1.30;;
15043;SDS011;7619;48.562;8.910;2022-07-19T08:23:01;1.30;;;1.20;;
15043;SDS011;7619;48.562;8.910;2022-07-19T08:25:30;1.73;;;1.53;;
15043;SDS011;7619;48.562;8.910;2022-07-19T08:28:00;2.20;;;1.10;;
15043;SDS011;7619;48.562;8.910;2022-07-19T08:30:30;1.27;;;1.17;;
15043;SDS011;7619;48.562;8.910;2022-07-19T08:32:59;1.93;;;1.13;;
15043;SDS011;7619;48.562;8.910;2022-07-19T08:35:31;2.33;;;1.60;;
15043;SDS011;7619;48.562;8.910;2022-07-19T08:38:00;1.57;;;1.20;;
15043;SDS011;7619;48.562;8.910;2022-07-19T08:40:29;1.10;;;1.00;;
15043;SDS011;7619;48.562;8.910;2022-07-19T08:43:02;3.77;;;1.10;;
15043;SDS011;7619;48.562;8.910;2022-07-19T08:45:31;1.17;;;1.10;;
15043;SDS011;7619;48.562;8.910;2022-07-19T08:48:02;1.40;;;1.30;;
15043;SDS011;7619;48.562;8.910;2022-07-19T08:50:33;1.10;;;1.00;;
15043;SDS011;7619;48.562;8.910;2022-07-19T08:53:01;1.60;;;1.27;;
15043;SDS011;7619;48.562;8.910;2022-07-19T08:55:31;3.50;;;1.13;;
15043;SDS011;7619;48.562;8.910;2022-07-19T08:58:00;1.47;;;1.00;;
15043;SDS011;7619;48.562;8.910;2022-07-19T09:00:29;3.57;;;1.30;;
15043;SDS011;7619;48.562;8.910;2022-07-19T09:03:00;1.30;;;1.20;;
15043;SDS011;7619;48.562;8.910;2022-07-19T09:05:30;3.10;;;1.27;;
15043;SDS011;7619;48.562;8.910;2022-07-19T09:08:02;2.40;;;1.90;;
15043;SDS011;7619;48.562;8.910;2022-07-19T09:10:34;2.27;;;1.30;;
15043;SDS011;7619;48.562;8.910;2022-07-19T09:13:05;1.50;;;1.40;;
15043;SDS011;7619;48.562;8.910;2022-07-19T09:15:40;1.47;;;1.10;;
15043;SDS011;7619;48.562;8.910;2022-07-19T09:18:15;1.50;;;1.40;;
15043;SDS011;7619;48.562;8.910;2022-07-19T09:20:43;2.07;;;1.30;;
15043;SDS011;7619;48.562;8.910;2022-07-19T09:23:13;2.57;;;1.50;;
15043;SDS011;7619;48.562;8.910;2022-07-19T09:25:43;1.87;;;1.40;;
15043;SDS011;7619;48.562;8.910;2022-07-19T09:28:15;1.43;;;1.33;;
15043;SDS011;7619;48.562;8.910;2022-07-19T09:30:45;1.40;;;1.17;;
15043;SDS011;7619;48.562;8.910;2022-07-19T09:33:16;2.00;;;1.37;;
15043;SDS011;7619;48.562;8.910;2022-07-19T09:35:45;1.60;;;1.50;;
15043;SDS011;7619;48.562;8.910;2022-07-19T09:38:15;1.23;;;1.10;;
15043;SDS011;7619;48.562;8.910;2022-07-19T09:40:49;1.97;;;1.53;;
15043;SDS011;7619;48.562;8.910;2022-07-19T09:43:18;1.50;;;1.40;;
15043;SDS011;7619;48.562;8.910;2022-07-19T09:45:49;2.27;;;1.67;;
15043;SDS011;7619;48.562;8.910;2022-07-19T09:48:18;2.30;;;1.80;;
15043;SDS011;7619;48.562;8.910;2022-07-19T09:50:47;1.93;;;1.80;;
15043;SDS011;7619;48.562;8.910;2022-07-19T09:53:16;1.87;;;1.50;;
15043;SDS011;7619;48.562;8.910;2022-07-19T09:55:47;2.47;;;1.30;;
15043;SDS011;7619;48.562;8.910;2022-07-19T09:58:17;2.00;;;1.30;;
15043;SDS011;7619;48.562;8.910;2022-07-19T10:00:46;1.87;;;1.60;;
15043;SDS011;7619;48.562;8.910;2022-07-19T10:03:15;1.67;;;1.27;;
15043;SDS011;7619;48.562;8.910;2022-07-19T10:05:44;4.47;;;2.30;;
15043;SDS011;7619;48.562;8.910;2022-07-19T10:08:13;2.60;;;1.27;;
15043;SDS011;7619;48.562;8.910;2022-07-19T10:10:41;1.77;;;1.60;;
15043;SDS011;7619;48.562;8.910;2022-07-19T10:13:09;2.20;;;1.50;;
15043;SDS011;7619;48.562;8.910;2022-07-19T10:15:39;3.63;;;1.60;;
15043;SDS011;7619;48.562;8.910;2022-07-19T10:18:12;1.13;;;1.07;;
15043;SDS011;7619;48.562;8.910;2022-07-19T10:20:42;1.70;;;1.30;;
15043;SDS011;7619;48.562;8.910;2022-07-19T10:23:13;3.37;;;1.40;;
15043;SDS011;7619;48.562;8.910;2022-07-19T10:25:43;1.43;;;1.27;;
15043;SDS011;7619;48.562;8.910;2022-07-19T10:28:26;2.10;;;1.60;;
15043;SDS011;7619;48.562;8.910;2022-07-19T10:30:56;1.60;;;1.40;;
15043;SDS011;7619;48.562;8.910;2022-07-19T10:33:31;3.73;;;1.80;;
15043;SDS011;7619;48.562;8.910;2022-07-19T10:39:19;2.80;;;1.70;;
15043;SDS011;7619;48.562;8.910;2022-07-19T10:42:06;1.60;;;1.47;;
15043;SDS011;7619;48.562;8.910;2022-07-19T10:48:01;2.60;;;1.70;;
15043;SDS011;7619;48.562;8.910;2022-07-19T10:56:30;2.80;;;2.10;;
15043;SDS011;7619;48.562;8.910;2022-07-19T10:59:05;3.53;;;1.70;;
15043;SDS011;7619;48.562;8.910;2022-07-19T11:01:34;2.60;;;1.30;;
15043;SDS011;7619;48.562;8.910;2022-07-19T11:04:24;4.93;;;1.43;;
15043;SDS011;7619;48.562;8.910;2022-07-19T11:07:14;2.60;;;1.87;;
15043;SDS011;7619;48.562;8.910;2022-07-19T11:09:46;1.53;;;1.30;;
15043;SDS011;7619;48.562;8.910;2022-07-19T11:12:25;1.23;;;1.13;;
15043;SDS011;7619;48.562;8.910;2022-07-19T11:14:53;1.73;;;1.50;;
15043;SDS011;7619;48.562;8.910;2022-07-19T11:17:31;2.27;;;1.40;;
15043;SDS011;7619;48.562;8.910;2022-07-19T11:22:39;2.07;;;1.33;;
15043;SDS011;7619;48.562;8.910;2022-07-19T11:25:07;3.10;;;1.50;;
15043;SDS011;7619;48.562;8.910;2022-07-19T11:27:40;2.77;;;1.33;;
15043;SDS011;7619;48.562;8.910;2022-07-19T11:30:20;3.40;;;1.33;;
15043;SDS011;7619;48.562;8.910;2022-07-19T11:32:53;4.00;;;1.53;;
15043;SDS011;7619;48.562;8.910;2022-07-19T11:35:24;2.93;;;1.20;;
15043;SDS011;7619;48.562;8.910;2022-07-19T11:37:53;5.10;;;1.80;;
15043;SDS011;7619;48.562;8.910;2022-07-19T11:40:35;2.77;;;1.73;;
15043;SDS011;7619;48.562;8.910;2022-07-19T11:43:05;1.63;;;1.43;;
15043;SDS011;7619;48.562;8.910;2022-07-19T11:45:40;1.83;;;1.67;;
15043;SDS011;7619;48.562;8.910;2022-07-19T11:48:02;3.93;;;1.70;;
15043;SDS011;7619;48.562;8.910;2022-07-19T11:50:40;2.33;;;2.13;;
15043;SDS011;7619;48.562;8.910;2022-07-19T11:53:09;2.23;;;1.73;;
15043;SDS011;7619;48.562;8.910;2022-07-19T11:55:38;2.27;;;1.60;;
15043;SDS011;7619;48.562;8.910;2022-07-19T11:58:07;1.47;;;1.37;;
15043;SDS011;7619;48.562;8.910;2022-07-19T12:03:14;2.70;;;1.70;;
15043;SDS011;7619;48.562;8.910;2022-07-19T12:05:53;2.97;;;1.70;;
15043;SDS011;7619;48.562;8.910;2022-07-19T12:08:31;4.47;;;2.70;;
15043;SDS011;7619;48.562;8.910;2022-07-19T12:10:59;4.73;;;2.03;;
15043;SDS011;7619;48.562;8.910;2022-07-19T12:13:29;2.50;;;1.93;;
15043;SDS011;7619;48.562;8.910;2022-07-19T12:16:00;4.33;;;1.67;;
15043;SDS011;7619;48.562;8.910;2022-07-19T12:18:41;3.73;;;2.00;;
15043;SDS011;7619;48.562;8.910;2022-07-19T12:21:24;2.13;;;1.90;;
15043;SDS011;7619;48.562;8.910;2022-07-19T12:26:40;3.90;;;1.97;;
15043;SDS011;7619;48.562;8.910;2022-07-19T12:29:17;1.60;;;1.50;;
15043;SDS011;7619;48.562;8.910;2022-07-19T12:31:46;1.73;;;1.63;;
15043;SDS011;7619;48.562;8.910;2022-07-19T12:34:14;3.03;;;1.57;;
15043;SDS011;7619;48.562;8.910;2022-07-19T12:36:52;2.17;;;1.90;;
15043;SDS011;7619;48.562;8.910;2022-07-19T12:39:21;3.97;;;1.60;;
15043;SDS011;7619;48.562;8.910;2022-07-19T12:41:53;7.50;;;1.93;;
15043;SDS011;7619;48.562;8.910;2022-07-19T12:44:28;1.67;;;1.57;;
15043;SDS011;7619;48.562;8.910;2022-07-19T12:46:57;2.27;;;1.80;;
15043;SDS011;7619;48.562;8.910;2022-07-19T12:49:25;2.47;;;1.73;;
15043;SDS011;7619;48.562;8.910;2022-07-19T12:51:53;2.57;;;1.90;;
15043;SDS011;7619;48.562;8.910;2022-07-19T12:54:21;1.60;;;1.40;;
15043;SDS011;7619;48.562;8.910;2022-07-19T12:56:58;4.27;;;1.73;;
15043;SDS011;7619;48.562;8.910;2022-07-19T12:59:27;2.47;;;1.80;;
15043;SDS011;7619;48.562;8.910;2022-07-19T13:02:05;2.50;;;2.00;;
15043;SDS011;7619;48.562;8.910;2022-07-19T13:04:32;3.70;;;1.90;;
15043;SDS011;7619;48.562;8.910;2022-07-19T13:07:01;5.20;;;1.60;;
15043;SDS011;7619;48.562;8.910;2022-07-19T13:09:32;1.53;;;1.40;;
15043;SDS011;7619;48.562;8.910;2022-07-19T13:12:01;2.10;;;1.77;;
15043;SDS011;7619;48.562;8.910;2022-07-19T13:14:33;4.80;;;1.13;;
15043;SDS011;7619;48.562;8.910;2022-07-19T13:17:01;3.60;;;1.80;;
15043;SDS011;7619;48.562;8.910;2022-07-19T13:19:28;2.53;;;1.80;;
15043;SDS011;7619;48.562;8.910;2022-07-19T13:21:57;3.30;;;1.63;;
15043;SDS011;7619;48.562;8.910;2022-07-19T13:24:26;3.33;;;1.60;;
15043;SDS011;7619;48.562;8.910;2022-07-19T13:26:56;2.77;;;1.90;;
15043;SDS011;7619;48.562;8.910;2022-07-19T13:29:25;2.23;;;1.67;;
15043;SDS011;7619;48.562;8.910;2022-07-19T13:31:54;5.80;;;2.07;;
15043;SDS011;7619;48.562;8.910;2022-07-19T13:36:58;1.53;;;1.43;;
15043;SDS011;7619;48.562;8.910;2022-07-19T13:39:27;3.07;;;1.70;;
15043;SDS011;7619;48.562;8.910;2022-07-19T13:42:04;1.50;;;1.40;;
15043;SDS011;7619;48.562;8.910;2022-07-19T13:44:33;2.80;;;1.70;;
15043;SDS011;7619;48.562;8.910;2022-07-19T13:47:03;4.97;;;1.63;;
15043;SDS011;7619;48.562;8.910;2022-07-19T13:49:31;2.60;;;1.27;;
15043;SDS011;7619;48.562;8.910;2022-07-19T13:51:59;2.17;;;1.77;;
15043;SDS011;7619;48.562;8.910;2022-07-19T13:54:27;1.83;;;1.73;;
15043;SDS011;7619;48.562;8.910;2022-07-19T13:57:05;3.73;;;1.60;;
15043;SDS011;7619;48.562;8.910;2022-07-19T13:59:34;2.27;;;1.60;;
15043;SDS011;7619;48.562;8.910;2022-07-19T14:02:04;4.43;;;1.40;;
15043;SDS011;7619;48.562;8.910;2022-07-19T14:04:31;2.93;;;1.70;;
15043;SDS011;7619;48.562;8.910;2022-07-19T14:07:00;5.90;;;2.03;;
15043;SDS011;7619;48.562;8.910;2022-07-19T14:09:29;1.80;;;1.30;;
15043;SDS011;7619;48.562;8.910;2022-07-19T14:12:08;3.37;;;2.10;;
15043;SDS011;7619;48.562;8.910;2022-07-19T14:14:38;2.53;;;2.03;;
15043;SDS011;7619;48.562;8.910;2022-07-19T14:17:06;3.60;;;1.93;;
15043;SDS011;7619;48.562;8.910;2022-07-19T14:19:34;1.70;;;1.50;;
15043;SDS011;7619;48.562;8.910;2022-07-19T14:22:13;2.63;;;1.60;;
15043;SDS011;7619;48.562;8.910;2022-07-19T14:24:42;2.33;;;1.53;;
15043;SDS011;7619;48.562;8.910;2022-07-19T14:27:11;1.60;;;1.50;;
15043;SDS011;7619;48.562;8.910;2022-07-19T14:29:40;6.50;;;1.70;;
15043;SDS011;7619;48.562;8.910;2022-07-19T14:32:08;2.10;;;1.43;;
15043;SDS011;7619;48.562;8.910;2022-07-19T14:34:36;3.10;;;1.70;;
15043;SDS011;7619;48.562;8.910;2022-07-19T14:37:06;2.30;;;1.60;;
15043;SDS011;7619;48.562;8.910;2022-07-19T14:39:34;2.33;;;1.70;;
15043;SDS011;7619;48.562;8.910;2022-07-19T14:42:02;2.80;;;1.47;;
15043;SDS011;7619;48.562;8.910;2022-07-19T14:44:31;3.83;;;2.00;;
15043;SDS011;7619;48.562;8.910;2022-07-19T14:47:13;2.77;;;1.53;;
15043;SDS011;7619;48.562;8.910;2022-07-19T14:49:41;1.40;;;1.27;;
15043;SDS011;7619;48.562;8.910;2022-07-19T14:52:10;1.97;;;1.70;;
15043;SDS011;7619;48.562;8.910;2022-07-19T14:54:38;2.73;;;1.70;;
15043;SDS011;7619;48.562;8.910;2022-07-19T14:57:06;2.10;;;1.67;;
15043;SDS011;7619;48.562;8.910;2022-07-19T14:59:35;1.83;;;1.60;;
15043;SDS011;7619;48.562;8.910;2022-07-19T15:02:03;3.17;;;1.93;;
15043;SDS011;7619;48.562;8.910;2022-07-19T15:04:32;2.10;;;1.90;;
15043;SDS011;7619;48.562;8.910;2022-07-19T15:07:02;2.67;;;1.90;;
15043;SDS011;7619;48.562;8.910;2022-07-19T15:09:30;1.93;;;1.70;;
15043;SDS011;7619;48.562;8.910;2022-07-19T15:11:59;1.93;;;1.80;;
15043;SDS011;7619;48.562;8.910;2022-07-19T15:14:28;2.67;;;1.80;;
15043;SDS011;7619;48.562;8.910;2022-07-19T15:16:58;2.33;;;1.67;;
15043;SDS011;7619;48.562;8.910;2022-07-19T15:19:40;2.40;;;1.60;;
15043;SDS011;7619;48.562;8.910;2022-07-19T15:22:08;2.03;;;1.73;;
15043;SDS011;7619;48.562;8.910;2022-07-19T15:24:37;4.00;;;1.70;;
15043;SDS011;7619;48.562;8.910;2022-07-19T15:27:06;4.00;;;1.90;;
15043;SDS011;7619;48.562;8.910;2022-07-19T15:29:34;2.23;;;1.70;;
15043;SDS011;7619;48.562;8.910;2022-07-19T15:32:05;2.93;;;1.63;;
15043;SDS011;7619;48.562;8.910;2022-07-19T15:34:34;3.47;;;1.70;;
15043;SDS011;7619;48.562;8.910;2022-07-19T15:37:03;5.00;;;1.87;;
15043;SDS011;7619;48.562;8.910;2022-07-19T15:39:31;2.13;;;1.90;;
15043;SDS011;7619;48.562;8.910;2022-07-19T15:42:00;1.80;;;1.70;;